Time;durP1;ratioP1;P1;durP2;ratioP2;P2;SDS_P1;SDS_P2;PMS_P1;PMS_P2;Temp;Humidity;BMP_temperature;BMP_pressure;BME280_temperature;BME280_humidity;BME280_pressure;Samples;Min_cycle;Max_cycle;Signal;HPM_P1;HPM_P2
2022/08/14 00:01:42;;;;;;;1.17;0.60;;;26.30;29.00;;;;;;2261171;56;20944;-67
2022/08/14 00:04:09;;;;;;;1.50;0.70;;;26.30;29.30;;;;;;2261286;56;20996;-66
2022/08/14 00:06:35;;;;;;;1.20;0.60;;;26.30;29.30;;;;;;2435384;55;20997;-67
2022/08/14 00:09:03;;;;;;;1.40;0.60;;;26.30;29.30;;;;;;2268124;56;20934;-68
2022/08/14 00:11:31;;;;;;;1.65;0.80;;;26.30;29.40;;;;;;2268375;56;20934;-67
2022/08/14 00:13:58;;;;;;;1.27;0.60;;;26.20;29.40;;;;;;2261540;56;20992;-70
2022/08/14 00:16:28;;;;;;;1.58;0.77;;;26.20;29.50;;;;;;2262243;56;21057;-69
2022/08/14 00:18:54;;;;;;;1.15;0.55;;;26.20;29.60;;;;;;2261130;56;21700;-68
2022/08/14 00:21:20;;;;;;;3.15;0.70;;;26.10;29.70;;;;;;2475424;55;20972;-66
2022/08/14 00:23:47;;;;;;;2.08;0.88;;;26.10;29.90;;;;;;2261229;56;21512;-67
2022/08/14 00:26:14;;;;;;;1.73;0.70;;;26.10;29.90;;;;;;2263575;56;21348;-68
2022/08/14 00:28:43;;;;;;;1.55;0.60;;;26.00;29.90;;;;;;2261445;56;21032;-67
2022/08/14 00:31:09;;;;;;;2.22;0.70;;;25.90;30.00;;;;;;2264615;56;21601;-66
2022/08/14 00:33:36;;;;;;;1.35;0.60;;;25.90;30.00;;;;;;2261853;56;21021;-67
2022/08/14 00:36:02;;;;;;;1.90;0.90;;;25.90;30.00;;;;;;2261702;56;21021;-66
2022/08/14 00:38:29;;;;;;;3.03;0.80;;;25.80;30.20;;;;;;2266869;56;20950;-66
2022/08/14 00:40:55;;;;;;;1.92;0.70;;;25.70;30.30;;;;;;2263789;55;21056;-67
2022/08/14 00:43:22;;;;;;;1.92;0.68;;;25.70;30.40;;;;;;2322838;55;21012;-68
2022/08/14 00:45:51;;;;;;;3.08;0.90;;;25.70;30.40;;;;;;2375886;55;21860;-66
2022/08/14 00:48:17;;;;;;;1.60;0.70;;;25.60;30.60;;;;;;2489775;55;21020;-66
2022/08/14 00:50:44;;;;;;;1.67;0.70;;;25.50;30.60;;;;;;2261430;56;20980;-66
2022/08/14 00:53:15;;;;;;;1.17;0.60;;;25.40;30.60;;;;;;2261787;56;21155;-68
2022/08/14 00:55:41;;;;;;;1.67;0.80;;;25.40;30.60;;;;;;2261620;56;21835;-66
2022/08/14 01:00:53;;;;;;;1.23;0.52;;;25.30;30.70;;;;;;2261691;56;21294;-68
2022/08/14 01:03:19;;;;;;;2.00;0.70;;;25.20;30.60;;;;;;2268482;56;21480;-67
2022/08/14 01:05:48;;;;;;;1.98;0.90;;;25.10;30.70;;;;;;2262242;56;20976;-67
2022/08/14 01:08:22;;;;;;;1.90;0.80;;;25.00;31.00;;;;;;2262152;56;20944;-67
2022/08/14 01:10:51;;;;;;;1.70;0.60;;;25.00;31.10;;;;;;2265466;56;20956;-67
2022/08/14 01:13:26;;;;;;;1.65;0.70;;;24.90;31.00;;;;;;2489804;55;21048;-66
2022/08/14 01:15:56;;;;;;;1.40;0.60;;;24.80;31.40;;;;;;2261851;56;21016;-68
2022/08/14 01:21:10;;;;;;;1.70;0.60;;;24.60;31.20;;;;;;2264845;56;21005;-66
2022/08/14 01:23:39;;;;;;;1.45;0.68;;;24.60;31.30;;;;;;2260402;56;20949;-70
2022/08/14 01:26:06;;;;;;;1.87;0.80;;;24.50;31.40;;;;;;2262978;56;20976;-66
2022/08/14 01:28:36;;;;;;;1.55;0.62;;;24.40;31.40;;;;;;2262039;56;20957;-66
2022/08/14 01:31:07;;;;;;;1.27;0.60;;;24.30;31.40;;;;;;2261661;56;20981;-67
2022/08/14 01:33:39;;;;;;;1.08;0.52;;;24.30;31.60;;;;;;2261533;56;21020;-66
2022/08/14 01:36:07;;;;;;;1.33;0.60;;;24.10;31.40;;;;;;2265066;56;21008;-70
2022/08/14 01:38:34;;;;;;;1.48;0.60;;;24.10;31.50;;;;;;2261684;56;21478;-66
2022/08/14 01:41:21;;;;;;;1.40;0.70;;;24.00;31.60;;;;;;2261952;56;21865;-67
2022/08/14 01:44:01;;;;;;;1.35;0.55;;;23.90;32.80;;;;;;2263442;56;20965;-69
2022/08/14 01:46:32;;;;;;;1.35;0.65;;;23.80;31.90;;;;;;2264992;55;22232;-66
2022/08/14 01:49:00;;;;;;;1.90;0.70;;;23.70;31.90;;;;;;2386473;55;20991;-66
2022/08/14 01:51:28;;;;;;;1.73;0.80;;;23.60;32.50;;;;;;2265323;56;21016;-68
2022/08/14 01:53:57;;;;;;;1.55;0.70;;;23.50;31.90;;;;;;2265198;55;21875;-69
2022/08/14 01:56:36;;;;;;;1.23;0.57;;;23.40;32.20;;;;;;2251763;56;21578;-67
2022/08/14 01:59:30;;;;;;;1.35;0.60;;;23.40;32.30;;;;;;2262081;56;20933;-67
2022/08/14 02:02:00;;;;;;;1.48;0.70;;;23.30;32.70;;;;;;2262574;56;21899;-70
2022/08/14 02:04:30;;;;;;;1.95;0.80;;;23.10;32.20;;;;;;2262407;56;21089;-66
2022/08/14 02:06:56;;;;;;;1.33;0.52;;;23.10;32.40;;;;;;2437545;55;20948;-66
2022/08/14 02:09:25;;;;;;;2.03;0.60;;;23.00;32.40;;;;;;2267394;56;20993;-66
2022/08/14 02:11:51;;;;;;;1.80;0.68;;;22.90;32.40;;;;;;2261552;56;20993;-69
2022/08/14 02:14:18;;;;;;;1.80;0.80;;;22.90;32.70;;;;;;2264636;56;21044;-69
2022/08/14 02:16:46;;;;;;;1.48;0.70;;;22.80;32.90;;;;;;2261546;56;21028;-67
2022/08/14 02:19:15;;;;;;;1.50;0.70;;;22.70;33.00;;;;;;2261686;56;21000;-68
2022/08/14 02:21:47;;;;;;;1.67;0.73;;;22.60;32.90;;;;;;2262235;56;21026;-68
2022/08/14 02:24:14;;;;;;;1.92;0.73;;;22.60;33.00;;;;;;2262598;56;21064;-71
2022/08/14 02:26:41;;;;;;;1.23;0.70;;;22.50;33.10;;;;;;2490513;55;20957;-66
2022/08/14 02:29:13;;;;;;;1.50;0.62;;;22.40;33.20;;;;;;2262253;56;21427;-67
2022/08/14 02:31:41;;;;;;;1.52;0.80;;;22.30;33.30;;;;;;2261877;56;20961;-66
2022/08/14 02:34:13;;;;;;;2.00;0.75;;;22.20;33.40;;;;;;2263812;56;21028;-68
2022/08/14 02:36:40;;;;;;;1.23;0.60;;;22.20;33.60;;;;;;2260313;56;21406;-67
2022/08/14 02:39:08;;;;;;;1.25;0.60;;;22.10;33.50;;;;;;2295563;55;20924;-68
2022/08/14 02:41:35;;;;;;;2.20;0.70;;;22.10;33.60;;;;;;2265259;55;21481;-69
2022/08/14 02:44:06;;;;;;;1.75;0.80;;;22.00;33.60;;;;;;2261056;56;21084;-68
2022/08/14 02:46:32;;;;;;;1.83;0.70;;;21.90;33.90;;;;;;2346454;55;21311;-67
2022/08/14 02:48:59;;;;;;;2.12;0.77;;;21.90;33.90;;;;;;2261880;56;21025;-67
2022/08/14 02:51:25;;;;;;;2.45;0.70;;;21.80;34.00;;;;;;2262160;56;20992;-66
2022/08/14 02:53:53;;;;;;;1.35;0.70;;;21.70;34.10;;;;;;2265698;55;21013;-66
2022/08/14 02:56:19;;;;;;;1.83;0.80;;;21.70;34.20;;;;;;2260931;56;21495;-68
2022/08/14 02:58:49;;;;;;;1.15;0.52;;;21.60;34.30;;;;;;2335320;55;20960;-66
2022/08/14 03:01:17;;;;;;;1.73;0.70;;;21.60;34.50;;;;;;2261742;55;20948;-67
2022/08/14 03:03:44;;;;;;;1.83;0.80;;;21.50;34.50;;;;;;2267121;56;21538;-67
2022/08/14 03:06:10;;;;;;;1.90;0.85;;;21.40;34.50;;;;;;2261747;56;21340;-69
2022/08/14 03:08:37;;;;;;;2.00;0.90;;;21.40;34.70;;;;;;2262396;56;21020;-67
2022/08/14 03:11:08;;;;;;;1.95;0.93;;;21.30;34.90;;;;;;2262965;56;20980;-67
2022/08/14 03:13:35;;;;;;;1.37;0.70;;;21.30;35.00;;;;;;2263798;56;21037;-67
2022/08/14 03:16:05;;;;;;;2.75;1.00;;;21.20;35.00;;;;;;2263472;56;20941;-67
2022/08/14 03:18:33;;;;;;;1.80;0.93;;;21.20;35.30;;;;;;2266368;56;20976;-67
2022/08/14 03:21:06;;;;;;;1.73;0.68;;;21.10;35.10;;;;;;2267967;56;21508;-66
2022/08/14 03:23:34;;;;;;;1.30;0.60;;;21.10;35.50;;;;;;2261224;56;21071;-67
2022/08/14 03:26:02;;;;;;;1.65;0.80;;;21.10;35.30;;;;;;2262114;56;21062;-69
2022/08/14 03:28:29;;;;;;;2.58;0.80;;;21.00;35.30;;;;;;2273681;55;20968;-71
2022/08/14 03:30:56;;;;;;;1.27;0.62;;;21.00;35.40;;;;;;2490562;55;21414;-71
2022/08/14 03:33:22;;;;;;;1.65;0.88;;;20.90;35.50;;;;;;2261967;56;21020;-69
2022/08/14 03:35:50;;;;;;;2.15;0.70;;;20.90;35.70;;;;;;2267495;56;21004;-68
2022/08/14 03:38:17;;;;;;;1.62;0.75;;;20.90;35.70;;;;;;2260837;56;20957;-69
2022/08/14 03:40:45;;;;;;;2.10;1.10;;;20.80;35.70;;;;;;2261426;56;21783;-73
2022/08/14 03:43:12;;;;;;;2.37;1.00;;;20.80;35.90;;;;;;2262094;56;20989;-68
2022/08/14 03:45:39;;;;;;;2.37;0.93;;;20.70;36.00;;;;;;2262234;56;20948;-66
2022/08/14 03:48:18;;;;;;;2.20;0.93;;;20.70;36.30;;;;;;2262304;56;20916;-66
2022/08/14 03:50:53;;;;;;;2.03;0.88;;;20.70;36.70;;;;;;2264109;56;21024;-66
2022/08/14 03:53:23;;;;;;;1.60;0.80;;;20.70;36.50;;;;;;2261003;56;20940;-67
2022/08/14 03:55:49;;;;;;;1.60;0.80;;;20.70;36.70;;;;;;2263347;56;20969;-66
2022/08/14 03:58:16;;;;;;;1.90;0.80;;;20.60;36.50;;;;;;2260341;56;20964;-69
2022/08/14 04:00:44;;;;;;;1.65;0.80;;;20.60;36.70;;;;;;2490956;55;20929;-69
2022/08/14 04:03:11;;;;;;;2.00;0.93;;;20.60;36.90;;;;;;2490115;55;20997;-68
2022/08/14 04:05:41;;;;;;;1.77;0.80;;;20.60;36.90;;;;;;2263988;56;20961;-69
2022/08/14 04:08:08;;;;;;;1.77;0.70;;;20.50;36.80;;;;;;2262212;56;21000;-69
2022/08/14 04:10:35;;;;;;;1.45;0.77;;;20.50;36.80;;;;;;2490722;54;21049;-68
2022/08/14 04:13:05;;;;;;;2.45;0.77;;;20.50;36.80;;;;;;2264273;56;20970;-68
2022/08/14 04:15:32;;;;;;;2.60;1.05;;;20.50;36.90;;;;;;2261713;56;22044;-68
2022/08/14 04:18:08;;;;;;;2.25;0.93;;;20.40;37.00;;;;;;2263532;56;21435;-69
2022/08/14 04:20:34;;;;;;;1.75;0.80;;;20.40;37.50;;;;;;2264590;56;20997;-69
2022/08/14 04:23:00;;;;;;;2.42;1.00;;;20.30;37.30;;;;;;2261388;56;21016;-71
2022/08/14 04:25:27;;;;;;;1.67;0.80;;;20.30;37.30;;;;;;2260576;56;20944;-69
2022/08/14 04:27:54;;;;;;;1.52;0.75;;;20.20;37.30;;;;;;2390413;55;20949;-69
2022/08/14 04:30:20;;;;;;;2.08;0.77;;;20.20;37.20;;;;;;2263807;56;21757;-69
2022/08/14 04:32:48;;;;;;;1.52;0.80;;;20.20;37.30;;;;;;2259798;56;21553;-68
2022/08/14 04:35:17;;;;;;;1.98;0.80;;;20.10;37.30;;;;;;2461139;55;21001;-68
2022/08/14 04:45:58;;;;;;;2.15;0.90;;;19.90;37.50;;;;;;2262573;56;21104;-69
2022/08/14 04:48:25;;;;;;;2.00;0.95;;;19.90;37.60;;;;;;2490986;55;20997;-68
2022/08/14 04:50:52;;;;;;;1.95;0.90;;;19.90;37.70;;;;;;2265101;56;20996;-68
2022/08/14 04:53:20;;;;;;;1.77;0.82;;;19.80;37.70;;;;;;2262432;56;21021;-69
2022/08/14 04:55:47;;;;;;;2.03;1.02;;;19.80;38.00;;;;;;2261413;56;20992;-71
2022/08/14 04:58:18;;;;;;;1.92;0.98;;;19.70;37.90;;;;;;2261171;56;20997;-68
2022/08/14 05:00:49;;;;;;;1.40;0.70;;;19.70;38.10;;;;;;2261592;56;21897;-68
2022/08/14 05:03:23;;;;;;;1.80;0.80;;;19.70;38.00;;;;;;2262399;56;21816;-68
2022/08/14 05:05:50;;;;;;;1.80;0.80;;;19.60;38.30;;;;;;2345808;55;21804;-70
2022/08/14 05:08:17;;;;;;;1.55;0.77;;;19.60;38.20;;;;;;2261109;56;21020;-69
2022/08/14 05:10:47;;;;;;;2.17;0.82;;;19.60;38.20;;;;;;2487185;54;21917;-71
2022/08/14 05:13:14;;;;;;;2.17;1.10;;;19.60;38.70;;;;;;2389882;55;21794;-72
2022/08/14 05:15:40;;;;;;;2.45;1.10;;;19.50;38.80;;;;;;2260335;56;21037;-70
2022/08/14 05:18:11;;;;;;;2.15;1.12;;;19.50;38.90;;;;;;2263563;56;21576;-68
2022/08/14 05:20:39;;;;;;;2.15;1.00;;;19.60;39.40;;;;;;2260943;56;20925;-70
2022/08/14 05:23:06;;;;;;;2.15;1.02;;;19.50;39.40;;;;;;2261381;56;21767;-68
2022/08/14 05:25:34;;;;;;;3.67;1.00;;;19.50;39.50;;;;;;2260978;56;21123;-69
2022/08/14 05:28:17;;;;;;;2.47;1.17;;;19.60;39.70;;;;;;2260790;56;20952;-69
2022/08/14 05:30:46;;;;;;;2.50;1.08;;;19.60;40.30;;;;;;2420397;55;21807;-68
2022/08/14 05:33:16;;;;;;;2.42;1.30;;;19.60;39.90;;;;;;2267743;56;21005;-71
2022/08/14 05:35:59;;;;;;;5.25;1.30;;;19.60;40.00;;;;;;2457053;55;21086;-71
2022/08/14 05:38:32;;;;;;;2.15;1.12;;;19.70;40.10;;;;;;2262364;56;20943;-69
2022/08/14 05:41:17;;;;;;;2.58;1.02;;;19.70;40.10;;;;;;2260394;56;21021;-68
2022/08/14 05:43:46;;;;;;;3.65;1.15;;;19.70;41.00;;;;;;2265601;56;20954;-69
2022/08/14 05:46:17;;;;;;;2.70;1.25;;;19.80;40.40;;;;;;2490064;55;20964;-69
2022/08/14 05:48:53;;;;;;;3.65;1.00;;;19.80;40.50;;;;;;2261601;56;21035;-70
2022/08/14 05:51:20;;;;;;;2.10;1.02;;;19.90;40.70;;;;;;2327409;55;20988;-69
2022/08/14 05:53:47;;;;;;;2.25;1.33;;;19.90;40.50;;;;;;2285872;55;20956;-71
2022/08/14 05:56:14;;;;;;;9.15;1.62;;;19.90;40.80;;;;;;2336418;55;21020;-68
2022/08/14 05:58:40;;;;;;;3.00;1.50;;;20.00;41.20;;;;;;2263599;56;21016;-68
2022/08/14 06:01:08;;;;;;;2.65;1.50;;;20.00;41.30;;;;;;2415970;55;21871;-70
2022/08/14 06:03:34;;;;;;;3.17;1.48;;;20.10;41.50;;;;;;2306919;55;20969;-71
2022/08/14 06:06:04;;;;;;;3.37;1.55;;;20.10;41.50;;;;;;2364552;54;20994;-68
2022/08/14 06:08:31;;;;;;;2.45;1.33;;;20.20;41.60;;;;;;2260696;56;21213;-69
2022/08/14 06:11:02;;;;;;;2.33;1.30;;;20.20;41.40;;;;;;2321793;55;20976;-68
2022/08/14 06:13:32;;;;;;;2.50;1.10;;;20.30;41.30;;;;;;2261029;56;21000;-69
2022/08/14 06:15:59;;;;;;;2.28;1.23;;;20.40;41.50;;;;;;2290478;55;21020;-69
2022/08/14 06:18:29;;;;;;;2.53;1.12;;;20.40;41.20;;;;;;2264368;56;21013;-70
2022/08/14 06:20:55;;;;;;;2.03;1.00;;;20.50;41.40;;;;;;2263518;56;20972;-70
2022/08/14 06:23:22;;;;;;;2.20;1.02;;;20.50;41.20;;;;;;2264701;56;21430;-69
2022/08/14 06:25:49;;;;;;;1.92;0.82;;;20.50;41.00;;;;;;2352184;55;21037;-70
2022/08/14 06:28:22;;;;;;;2.03;0.90;;;20.60;41.10;;;;;;2263956;56;21054;-71
2022/08/14 06:30:49;;;;;;;2.67;1.20;;;20.60;41.30;;;;;;2487010;55;20992;-70
2022/08/14 06:33:16;;;;;;;2.62;1.00;;;20.60;41.20;;;;;;2260930;56;21021;-71
2022/08/14 06:35:43;;;;;;;2.10;1.10;;;20.70;41.20;;;;;;2244697;56;22024;-65
2022/08/14 06:38:18;;;;;;;2.00;0.93;;;20.70;41.30;;;;;;2260768;56;21056;-68
2022/08/14 06:40:45;;;;;;;2.35;1.05;;;20.70;41.40;;;;;;2489850;55;21071;-70
2022/08/14 06:43:11;;;;;;;2.12;0.88;;;20.70;41.30;;;;;;2311247;55;20992;-72
2022/08/14 06:45:40;;;;;;;3.45;1.08;;;20.80;41.50;;;;;;2278502;55;20981;-70
2022/08/14 06:48:15;;;;;;;2.42;1.20;;;20.80;41.70;;;;;;2260332;56;21059;-69
2022/08/14 06:50:43;;;;;;;3.58;1.20;;;20.80;42.20;;;;;;2261180;56;21012;-72
2022/08/14 06:53:10;;;;;;;2.40;1.10;;;20.90;42.10;;;;;;2262091;56;21026;-71
2022/08/14 06:55:38;;;;;;;2.20;1.10;;;20.90;42.00;;;;;;2260338;56;20948;-69
2022/08/14 06:58:04;;;;;;;2.45;0.90;;;21.00;42.00;;;;;;2261144;56;20961;-68
2022/08/14 07:00:31;;;;;;;2.75;1.10;;;21.00;41.90;;;;;;2290029;55;21287;-67
2022/08/14 07:05:48;;;;;;;2.55;1.15;;;21.20;41.90;;;;;;2369031;54;21777;-66
2022/08/14 07:08:19;;;;;;;2.12;1.23;;;21.30;41.90;;;;;;2261611;56;21230;-66
2022/08/14 07:10:48;;;;;;;2.40;1.23;;;21.30;41.90;;;;;;2485669;55;21883;-66
2022/08/14 07:13:18;;;;;;;2.42;1.30;;;21.40;42.00;;;;;;2260874;56;21030;-66
2022/08/14 07:15:49;;;;;;;2.33;1.20;;;21.50;42.10;;;;;;2269481;55;20960;-69
2022/08/14 07:18:22;;;;;;;1.77;0.90;;;21.60;42.10;;;;;;2261311;56;20988;-66
2022/08/14 07:20:48;;;;;;;4.12;1.05;;;21.70;42.10;;;;;;2365281;55;20965;-66
2022/08/14 07:23:14;;;;;;;2.65;1.20;;;21.80;41.90;;;;;;2261204;56;21501;-66
2022/08/14 07:25:42;;;;;;;2.10;0.98;;;21.90;41.90;;;;;;2326593;55;21932;-66
2022/08/14 07:28:30;;;;;;;2.60;0.98;;;21.90;42.20;;;;;;2260818;56;20977;-69
2022/08/14 07:30:57;;;;;;;2.67;1.20;;;22.10;42.10;;;;;;2487528;55;20985;-69
2022/08/14 07:33:25;;;;;;;2.17;1.10;;;22.20;41.90;;;;;;2260878;56;21004;-67
2022/08/14 07:35:52;;;;;;;2.17;1.15;;;22.20;42.10;;;;;;2269695;55;21895;-69
2022/08/14 07:38:20;;;;;;;2.17;1.12;;;22.40;42.20;;;;;;2262448;55;21536;-67
2022/08/14 07:40:49;;;;;;;3.47;1.35;;;22.50;42.10;;;;;;2411153;55;20981;-66
2022/08/14 07:43:17;;;;;;;2.15;0.98;;;22.60;42.10;;;;;;2260908;56;21074;-70
2022/08/14 07:45:43;;;;;;;4.80;1.20;;;22.70;42.00;;;;;;2376102;55;21005;-68
2022/08/14 07:48:09;;;;;;;1.92;1.05;;;22.80;42.00;;;;;;2261070;56;20957;-67
2022/08/14 07:50:39;;;;;;;2.65;1.20;;;23.00;42.10;;;;;;2331516;55;21317;-70
2022/08/14 07:56:35;;;;;;;1.95;0.90;;;23.30;42.60;;;;;;2255668;56;20960;-68
2022/08/14 07:59:01;;;;;;;3.80;1.00;;;23.40;42.20;;;;;;2488860;55;20981;-69
2022/08/14 08:01:29;;;;;;;2.22;1.10;;;23.60;42.30;;;;;;2261361;56;21809;-66
2022/08/14 08:03:58;;;;;;;2.85;1.10;;;23.70;42.30;;;;;;2262190;55;21480;-70
2022/08/14 08:06:24;;;;;;;2.75;1.45;;;23.90;42.30;;;;;;2260696;56;21033;-66
2022/08/14 08:08:51;;;;;;;3.00;1.23;;;24.00;42.30;;;;;;2260038;56;21308;-67
2022/08/14 08:11:18;;;;;;;3.00;1.37;;;24.20;42.30;;;;;;2464297;55;20909;-67
2022/08/14 08:13:44;;;;;;;4.85;1.40;;;24.30;42.20;;;;;;2368781;55;20972;-66
2022/08/14 08:16:10;;;;;;;2.28;1.15;;;24.40;42.10;;;;;;2259589;56;20969;-67
2022/08/14 08:18:37;;;;;;;4.62;1.30;;;24.60;42.20;;;;;;2294962;55;20988;-69
2022/08/14 08:21:03;;;;;;;2.70;1.35;;;24.70;42.20;;;;;;2435320;55;20960;-66
2022/08/14 08:23:32;;;;;;;2.30;1.20;;;24.90;42.00;;;;;;2261231;56;20959;-66
2022/08/14 08:26:01;;;;;;;3.67;1.35;;;25.00;42.00;;;;;;2263497;56;20970;-67
2022/08/14 08:28:28;;;;;;;4.15;1.30;;;25.20;42.20;;;;;;2303086;55;20961;-67
2022/08/14 08:30:58;;;;;;;2.05;1.10;;;25.30;42.10;;;;;;2264259;56;21753;-65
2022/08/14 08:33:30;;;;;;;3.10;1.12;;;25.40;41.90;;;;;;2260860;56;21092;-66
2022/08/14 08:35:59;;;;;;;2.30;1.17;;;25.60;41.70;;;;;;2261977;56;21068;-67
2022/08/14 08:38:26;;;;;;;2.03;1.00;;;25.70;41.60;;;;;;2261244;56;21004;-66
2022/08/14 08:40:57;;;;;;;2.50;1.23;;;25.80;41.40;;;;;;2268649;56;21012;-69
2022/08/14 08:43:27;;;;;;;2.47;1.40;;;26.00;41.50;;;;;;2263180;56;21017;-69
2022/08/14 08:46:13;;;;;;;2.25;1.00;;;26.10;41.40;;;;;;2260599;56;21024;-67
2022/08/14 08:48:56;;;;;;;2.30;1.05;;;26.30;41.40;;;;;;2489794;55;20940;-67
2022/08/14 08:51:31;;;;;;;2.33;1.10;;;26.40;41.00;;;;;;2284025;55;21397;-69
2022/08/14 08:54:12;;;;;;;2.30;1.20;;;26.50;40.90;;;;;;2260022;56;20972;-67
2022/08/14 08:56:41;;;;;;;;;;;26.60;40.60;;;;;;2246818;57;21033;-69
2022/08/14 08:59:29;;;;;;;3.22;1.23;;;26.80;40.60;;;;;;2261277;56;20178;-67
2022/08/14 09:02:06;;;;;;;2.45;1.30;;;26.90;40.60;;;;;;2258398;56;21839;-67
2022/08/14 09:04:43;;;;;;;2.45;1.00;;;27.00;40.30;;;;;;2488215;54;21936;-69
2022/08/14 09:07:09;;;;;;;2.50;1.00;;;27.10;40.00;;;;;;2268434;56;20993;-69
2022/08/14 09:09:51;;;;;;;2.15;0.95;;;27.20;40.00;;;;;;2259674;56;21436;-66
2022/08/14 09:12:18;;;;;;;1.65;0.80;;;27.30;39.90;;;;;;2488860;54;21009;-69
2022/08/14 09:14:50;;;;;;;3.28;1.45;;;27.50;39.80;;;;;;2262538;56;20952;-70
2022/08/14 09:17:16;;;;;;;3.58;1.23;;;27.60;39.60;;;;;;2264986;56;21069;-67
2022/08/14 09:19:42;;;;;;;3.00;1.25;;;27.70;39.50;;;;;;2265309;56;21269;-65
2022/08/14 09:22:12;;;;;;;2.12;1.00;;;27.80;39.20;;;;;;2259713;55;21044;-67
2022/08/14 09:24:38;;;;;;;3.37;1.00;;;27.90;39.10;;;;;;2267367;55;20984;-67
2022/08/14 09:27:05;;;;;;;2.50;1.10;;;28.00;38.90;;;;;;2271766;55;21048;-67
2022/08/14 09:29:34;;;;;;;1.90;0.93;;;28.10;38.90;;;;;;2261105;56;21008;-68
2022/08/14 09:32:02;;;;;;;2.10;1.00;;;28.20;38.70;;;;;;2261585;56;21028;-67
2022/08/14 09:34:52;;;;;;;2.58;1.10;;;28.30;38.60;;;;;;2322271;55;21520;-67
2022/08/14 09:39:10;;;;;;;2.87;1.23;;;28.50;38.30;;;;;;2260921;56;21478;-67
2022/08/14 09:44:36;;;;;;;2.83;0.95;;;28.60;38.30;;;;;;2261644;56;21925;-66
2022/08/14 09:47:02;;;;;;;1.80;0.90;;;28.80;38.10;;;;;;2260843;56;20980;-65
2022/08/14 09:49:43;;;;;;;3.17;1.00;;;28.90;38.00;;;;;;2260666;56;21932;-66
2022/08/14 09:52:11;;;;;;;4.05;1.00;;;29.10;37.90;;;;;;2426763;54;21001;-66
2022/08/14 09:54:40;;;;;;;1.50;0.75;;;29.20;37.60;;;;;;2395873;55;21460;-66
2022/08/14 09:57:08;;;;;;;2.97;1.10;;;29.30;37.50;;;;;;2360985;54;21935;-66
2022/08/14 09:59:46;;;;;;;2.08;1.08;;;29.40;37.40;;;;;;2259909;56;21020;-66
2022/08/14 10:02:26;;;;;;;2.05;1.00;;;29.50;37.20;;;;;;2260603;56;20956;-66
2022/08/14 10:05:08;;;;;;;2.53;1.12;;;29.60;37.20;;;;;;2262063;56;21084;-66
2022/08/14 10:07:52;;;;;;;2.10;1.05;;;29.70;36.90;;;;;;2261118;56;21024;-67
2022/08/14 10:10:40;;;;;;;2.47;1.27;;;29.80;36.90;;;;;;2283343;55;21063;-66
2022/08/14 10:13:19;;;;;;;2.00;1.08;;;30.00;36.70;;;;;;2298691;55;21044;-66
2022/08/14 10:15:48;;;;;;;2.65;1.00;;;30.10;36.40;;;;;;2260277;55;20996;-66
2022/08/14 10:18:17;;;;;;;2.20;1.10;;;30.10;36.10;;;;;;2320036;55;21008;-66
2022/08/14 10:20:59;;;;;;;2.00;1.02;;;30.30;36.00;;;;;;2475935;55;20954;-70
2022/08/14 10:23:27;;;;;;;2.40;1.20;;;30.40;35.40;;;;;;2264157;56;20969;-66
2022/08/14 10:26:03;;;;;;;2.08;1.00;;;30.40;35.70;;;;;;2261963;55;21020;-66
2022/08/14 10:28:41;;;;;;;1.73;0.85;;;30.50;35.20;;;;;;2260286;56;21651;-67
2022/08/14 10:31:33;;;;;;;2.75;1.00;;;30.70;34.80;;;;;;2243144;57;20980;-66
2022/08/14 10:34:07;;;;;;;2.65;1.00;;;30.70;34.50;;;;;;2315963;55;21517;-66
2022/08/14 10:36:38;;;;;;;1.73;0.77;;;30.80;34.60;;;;;;2261351;56;21153;-66
2022/08/14 10:39:16;;;;;;;7.50;4.70;;;30.90;34.50;;;;;;2264591;55;21008;-65
2022/08/14 10:41:43;;;;;;;4.00;2.70;;;30.90;34.50;;;;;;2263035;56;20993;-65
2022/08/14 10:44:15;;;;;;;2.85;1.90;;;31.00;34.50;;;;;;2262106;56;21600;-66
2022/08/14 10:46:51;;;;;;;3.05;1.80;;;31.10;34.20;;;;;;2447759;55;21017;-65
2022/08/14 10:49:23;;;;;;;2.00;0.95;;;31.20;34.30;;;;;;2261317;56;20968;-65
2022/08/14 10:52:04;;;;;;;;;;;31.30;34.10;;;;;;2267133;56;21106;-65
2022/08/14 10:54:44;;;;;;;2.30;0.95;;;31.40;34.10;;;;;;2324274;55;20073;-65
2022/08/14 10:57:26;;;;;;;2.55;1.10;;;31.50;33.90;;;;;;2267414;55;21423;-69
2022/08/14 10:59:56;;;;;;;1.70;0.90;;;31.50;33.70;;;;;;2261127;56;20996;-65
2022/08/14 11:02:35;;;;;;;3.10;1.65;;;31.60;33.80;;;;;;2339633;55;21485;-65
2022/08/14 11:05:17;;;;;;;2.60;1.25;;;31.70;33.60;;;;;;2261168;56;21040;-66
2022/08/14 11:08:01;;;;;;;2.30;1.10;;;31.80;33.30;;;;;;2287296;55;21810;-65
2022/08/14 11:12:19;;;;;;;2.83;1.05;;;31.90;33.00;;;;;;2382558;55;21117;-67
2022/08/14 11:14:58;;;;;;;1.77;1.00;;;32.00;33.30;;;;;;2262610;56;20964;-66
2022/08/14 11:17:29;;;;;;;4.93;1.30;;;32.10;32.70;;;;;;2263910;55;20981;-66
2022/08/14 11:19:57;;;;;;;1.87;1.00;;;32.20;33.00;;;;;;2299213;55;20977;-66
2022/08/14 11:22:28;;;;;;;2.55;1.15;;;32.30;33.00;;;;;;2260105;56;20973;-65
2022/08/14 11:24:57;;;;;;;2.03;1.02;;;32.40;32.90;;;;;;2244831;57;20977;-66
2022/08/14 11:27:24;;;;;;;1.60;0.80;;;32.40;32.80;;;;;;2241639;56;21028;-66
2022/08/14 11:29:54;;;;;;;2.08;1.10;;;32.50;32.70;;;;;;2262477;56;21035;-66
2022/08/14 11:32:20;;;;;;;2.12;1.00;;;32.60;32.10;;;;;;2262939;56;21008;-65
2022/08/14 11:34:47;;;;;;;1.35;0.70;;;32.70;32.10;;;;;;2261979;56;21081;-67
2022/08/14 11:37:14;;;;;;;1.83;0.90;;;32.80;32.00;;;;;;2263933;56;21038;-66
2022/08/14 11:39:40;;;;;;;1.65;0.80;;;32.80;31.60;;;;;;2260088;56;21016;-66
2022/08/14 11:42:19;;;;;;;2.20;1.00;;;32.90;31.30;;;;;;2260532;56;21311;-65
2022/08/14 11:44:45;;;;;;;1.87;0.88;;;33.00;31.20;;;;;;2345807;55;20945;-65
2022/08/14 11:47:18;;;;;;;5.05;0.80;;;33.10;31.10;;;;;;2264010;56;20965;-66
2022/08/14 11:49:47;;;;;;;1.30;0.60;;;33.20;30.90;;;;;;2263902;56;21815;-66
2022/08/14 11:52:14;;;;;;;1.23;0.65;;;33.20;30.60;;;;;;2260171;56;20940;-65
2022/08/14 11:54:41;;;;;;;2.30;0.80;;;33.30;30.60;;;;;;2261089;56;21455;-66
2022/08/14 11:57:15;;;;;;;4.55;0.82;;;33.30;30.10;;;;;;2264298;56;20968;-67
2022/08/14 11:59:41;;;;;;;3.05;0.80;;;33.40;29.50;;;;;;2261249;56;20941;-67
2022/08/14 12:02:12;;;;;;;1.58;0.68;;;33.50;29.70;;;;;;2266568;56;21214;-67
2022/08/14 12:04:50;;;;;;;1.27;0.60;;;33.50;29.70;;;;;;2260471;56;20953;-70
2022/08/14 12:07:18;;;;;;;1.62;0.68;;;33.60;28.50;;;;;;2264216;56;21127;-66
2022/08/14 12:09:45;;;;;;;1.12;0.60;;;33.60;28.90;;;;;;2260329;56;21525;-66
2022/08/14 12:12:19;;;;;;;1.40;0.73;;;33.60;29.40;;;;;;2261230;56;20985;-65
2022/08/14 12:14:55;;;;;;;1.87;0.70;;;33.70;28.40;;;;;;2261775;56;21817;-65
2022/08/14 12:17:23;;;;;;;1.50;0.70;;;33.70;28.60;;;;;;2380130;55;21416;-66
2022/08/14 12:20:00;;;;;;;2.87;0.90;;;33.70;28.70;;;;;;2261686;56;21436;-66
2022/08/14 12:22:43;;;;;;;1.70;0.70;;;33.70;28.50;;;;;;2323744;55;21080;-65
2022/08/14 12:25:18;;;;;;;1.67;0.65;;;33.70;28.10;;;;;;2263936;56;20937;-65
2022/08/14 12:27:48;;;;;;;1.37;0.60;;;33.80;28.30;;;;;;2489235;55;20997;-66
2022/08/14 12:33:56;;;;;;;1.50;0.65;;;33.80;28.10;;;;;;2260853;56;21461;-67
2022/08/14 12:36:22;;;;;;;1.27;0.68;;;33.90;28.30;;;;;;2261079;56;20953;-67
2022/08/14 12:38:53;;;;;;;1.37;0.60;;;33.90;28.30;;;;;;2261346;56;20949;-67
2022/08/14 12:41:21;;;;;;;2.00;0.80;;;33.90;28.30;;;;;;2260810;56;20953;-66
2022/08/14 12:44:48;;;;;;;1.85;0.70;;;33.90;28.20;;;;;;2260724;56;21020;-71
2022/08/14 12:47:19;;;;;;;1.48;0.62;;;33.90;28.20;;;;;;2262389;56;21069;-68
2022/08/14 12:49:51;;;;;;;1.73;0.70;;;34.00;27.90;;;;;;2295786;55;21077;-66
2022/08/14 12:53:18;;;;;;;1.50;0.60;;;34.00;27.70;;;;;;2260626;56;21750;-66
2022/08/14 12:55:45;;;;;;;1.70;0.70;;;34.20;27.50;;;;;;2260214;56;21241;-66
2022/08/14 12:58:11;;;;;;;1.10;0.57;;;34.20;27.60;;;;;;2383986;55;21088;-67
2022/08/14 13:00:51;;;;;;;1.87;0.93;;;34.30;27.60;;;;;;2487586;55;20981;-69
2022/08/14 13:03:31;;;;;;;1.45;0.70;;;34.30;27.40;;;;;;2277318;55;21448;-67
2022/08/14 13:05:59;;;;;;;1.77;0.73;;;34.40;27.50;;;;;;2261238;56;21666;-66
2022/08/14 13:08:25;;;;;;;2.50;1.00;;;34.40;27.50;;;;;;2288450;55;21069;-66
2022/08/14 13:10:52;;;;;;;1.40;0.70;;;34.40;27.30;;;;;;2332305;55;20969;-65
2022/08/14 13:13:19;;;;;;;1.35;0.60;;;34.50;27.40;;;;;;2260030;56;20981;-70
2022/08/14 13:15:46;;;;;;;1.98;0.88;;;34.50;27.30;;;;;;2307319;55;21349;-66
2022/08/14 13:18:15;;;;;;;2.42;1.02;;;34.50;27.30;;;;;;2265011;56;21929;-66
2022/08/14 13:20:42;;;;;;;1.95;0.77;;;34.50;27.30;;;;;;2260102;56;21000;-65
2022/08/14 13:23:12;;;;;;;1.80;0.90;;;34.50;27.20;;;;;;2264427;55;21663;-66
2022/08/14 13:25:39;;;;;;;1.85;0.70;;;34.50;27.20;;;;;;2260911;56;20951;-67
2022/08/14 13:28:08;;;;;;;1.80;0.70;;;34.50;27.20;;;;;;2260757;56;20949;-66
2022/08/14 13:30:35;;;;;;;1.70;0.73;;;34.40;26.90;;;;;;2261708;55;21060;-68
2022/08/14 13:33:05;;;;;;;2.00;0.85;;;34.50;27.00;;;;;;2469033;55;20948;-67
2022/08/14 13:35:31;;;;;;;2.65;1.00;;;34.50;26.90;;;;;;2260579;56;20977;-67